createdAt,value
2019-05-06T00:02:41.173Z,100263.27
2019-05-06T00:07:55.837Z,100259.85
2019-05-06T00:13:01.247Z,100256.40
2019-05-06T00:18:06.350Z,100261.69
2019-05-06T00:23:17.060Z,100262.76
2019-05-06T00:28:31.303Z,100259.56
2019-05-06T00:33:36.456Z,100267.50
2019-05-06T00:38:44.794Z,100261.67
2019-05-06T00:43:50.782Z,100265.13
2019-05-06T00:48:57.674Z,100263.28
2019-05-06T00:54:11.224Z,100259.85
2019-05-06T00:59:16.314Z,100252.70
2019-05-06T01:04:21.328Z,100262.77
2019-05-06T01:09:28.231Z,100271.49
2019-05-06T01:14:40.917Z,100271.23
2019-05-06T01:19:48.641Z,100276.53
2019-05-06T01:24:55.871Z,100277.05
2019-05-06T01:30:01.088Z,100277.06
2019-05-06T01:35:07.900Z,100289.25
2019-05-06T01:40:31.430Z,100289.23
2019-05-06T01:45:36.945Z,100295.31
2019-05-06T01:50:41.960Z,100292.40
2019-05-06T01:55:47.018Z,100294.77
2019-05-06T02:00:53.966Z,100299.25
2019-05-06T02:05:59.220Z,100302.92
2019-05-06T02:11:04.255Z,100309.82
2019-05-06T02:16:09.293Z,100308.23
2019-05-06T02:21:19.787Z,100311.92
2019-05-06T02:26:24.846Z,100315.91
2019-05-06T02:31:56.667Z,100321.89
2019-05-06T02:37:14.763Z,100327.98
2019-05-06T02:42:19.524Z,100328.25
2019-05-06T02:47:34.313Z,100325.83
2019-05-06T02:52:39.779Z,100317.83
2019-05-06T02:57:44.770Z,100323.90
2019-05-06T03:02:49.877Z,100333.11
2019-05-06T03:07:57.744Z,100335.98
2019-05-06T03:13:03.183Z,100336.16
2019-05-06T03:18:08.275Z,100339.05
2019-05-06T03:23:14.525Z,100338.48
2019-05-06T03:28:22.426Z,100342.19
2019-05-06T03:33:47.685Z,100339.55
2019-05-06T03:38:33.971Z,100340.86
2019-05-06T03:43:39.065Z,100345.61
2019-05-06T03:48:45.686Z,100352.95
2019-05-06T03:53:54.072Z,100354.47
2019-05-06T03:58:59.663Z,100364.80
2019-05-06T04:04:05.852Z,100368.19
2019-05-06T04:09:13.303Z,100367.88
2019-05-06T04:14:47.928Z,100370.36
2019-05-06T04:20:04.012Z,100366.59
2019-05-06T04:25:30.039Z,100377.36
2019-05-06T04:30:35.151Z,100374.19
2019-05-06T04:35:42.822Z,100385.02
2019-05-06T04:40:46.987Z,100388.55
2019-05-06T04:45:54.109Z,100392.38
2019-05-06T04:50:58.865Z,100391.54
2019-05-06T04:56:04.370Z,100393.63
2019-05-06T05:01:13.007Z,100398.77
2019-05-06T05:06:16.938Z,100401.16
2019-05-06T05:11:33.329Z,100397.17
2019-05-06T05:16:54.690Z,100402.66
2019-05-06T05:22:09.113Z,100414.55
2019-05-06T05:27:14.193Z,100413.84
2019-05-06T05:32:19.347Z,100416.53
2019-05-06T05:37:24.412Z,100414.22
2019-05-06T05:42:39.757Z,100414.98
2019-05-06T05:47:45.412Z,100418.20
2019-05-06T05:52:51.933Z,100419.09
2019-05-06T05:57:58.662Z,100419.87
2019-05-06T06:03:06.828Z,100424.42
2019-05-06T06:08:12.839Z,100424.18
2019-05-06T06:13:17.733Z,100419.84
2019-05-06T06:18:43.112Z,100422.28
2019-05-06T06:23:49.558Z,100415.11
2019-05-06T06:28:54.688Z,100415.69
2019-05-06T06:34:07.274Z,100415.53
2019-05-06T06:39:29.172Z,100415.92
2019-05-06T06:44:35.901Z,100420.67
2019-05-06T06:49:42.400Z,100428.43
2019-05-06T06:54:48.456Z,100416.64
2019-05-06T06:59:59.060Z,100411.89
2019-05-06T07:05:25.467Z,100413.52
2019-05-06T07:10:44.682Z,100419.92
2019-05-06T07:15:52.020Z,100414.92
2019-05-06T07:21:06.909Z,100414.61
2019-05-06T07:26:13.822Z,100418.09
2019-05-06T07:31:23.681Z,100419.20
2019-05-06T07:36:26.810Z,100416.91
2019-05-06T07:41:38.730Z,100420.36
2019-05-06T07:47:03.659Z,100413.73
2019-05-06T07:52:08.750Z,100413.45
2019-05-06T07:57:14.896Z,100414.55
2019-05-06T08:02:22.917Z,100419.81
2019-05-06T08:07:27.462Z,100416.92
2019-05-06T08:12:32.782Z,100416.39
2019-05-06T08:17:42.312Z,100417.98
2019-05-06T08:22:56.307Z,100415.85
2019-05-06T08:27:59.768Z,100412.69
2019-05-06T08:33:04.868Z,100422.75
2019-05-06T08:38:12.001Z,100417.45
2019-05-06T08:43:16.760Z,100413.20
2019-05-06T08:48:22.144Z,100407.09
2019-05-06T08:53:42.432Z,100411.62
2019-05-06T08:58:52.820Z,100410.04
2019-05-06T09:04:08.756Z,100402.87
2019-05-06T09:09:06.714Z,100407.12
2019-05-06T09:14:14.180Z,100399.94
2019-05-06T09:19:19.702Z,100398.61
2019-05-06T09:24:25.220Z,100385.91
2019-05-06T09:29:37.224Z,100388.55
2019-05-06T09:34:48.125Z,100375.98
2019-05-06T09:39:53.664Z,100378.91
2019-05-06T09:44:59.117Z,100393.02
2019-05-06T09:50:04.368Z,100388.05
2019-05-06T09:55:15.944Z,100389.55
2019-05-06T10:00:23.548Z,100389.29
2019-05-06T10:05:29.198Z,100385.03
2019-05-06T10:10:58.630Z,100391.94
2019-05-06T10:15:57.497Z,100383.45
2019-05-06T10:21:01.592Z,100400.97
2019-05-06T10:26:06.690Z,100395.16
2019-05-06T10:31:14.098Z,100392.78
2019-05-06T10:36:19.404Z,100390.89
2019-05-06T10:41:28.007Z,100392.73
2019-05-06T10:46:33.584Z,100397.20
2019-05-06T10:51:45.798Z,100393.52
2019-05-06T10:57:12.506Z,100397.72
2019-05-06T11:02:43.111Z,100387.83
2019-05-06T11:07:48.397Z,100384.77
2019-05-06T11:12:54.010Z,100375.41
2019-05-06T11:18:04.182Z,100374.55
2019-05-06T11:23:06.390Z,100380.31
2019-05-06T11:28:29.214Z,100365.21
2019-05-06T11:33:43.378Z,100359.60
2019-05-06T11:38:48.649Z,100366.03
2019-05-06T11:43:54.206Z,100359.00
2019-05-06T11:48:59.286Z,100356.92
2019-05-06T11:54:16.319Z,100360.59
2019-05-06T11:59:13.030Z,100348.58
2019-05-06T12:04:27.538Z,100352.59
2019-05-06T12:09:33.332Z,100344.84
2019-05-06T12:14:44.799Z,100339.00
2019-05-06T12:19:49.910Z,100347.94
2019-05-06T12:24:55.523Z,100348.59
2019-05-06T12:30:05.354Z,100345.92
2019-05-06T12:35:08.153Z,100348.63
2019-05-06T12:40:14.718Z,100350.02
2019-05-06T12:45:44.704Z,100339.48
2019-05-06T12:50:52.556Z,100341.35
2019-05-06T12:55:57.790Z,100340.34
2019-05-06T13:01:05.591Z,100346.63
2019-05-06T13:06:12.920Z,100351.25
2019-05-06T13:11:17.545Z,100345.78
2019-05-06T13:16:22.927Z,100349.83
2019-05-06T13:21:28.136Z,100351.70
2019-05-06T13:26:33.368Z,100349.41
2019-05-06T13:31:38.429Z,100344.14
2019-05-06T13:36:43.921Z,100341.33
2019-05-06T13:41:49.024Z,100334.59
2019-05-06T13:46:55.150Z,100330.72
2019-05-06T13:52:04.357Z,100329.89
2019-05-06T13:57:12.529Z,100327.36
2019-05-06T14:02:34.207Z,100327.78
2019-05-06T14:07:40.120Z,100314.68
2019-05-06T14:12:45.722Z,100311.48
2019-05-06T14:17:53.225Z,100320.06
2019-05-06T14:22:58.042Z,100307.48
2019-05-06T14:28:14.326Z,100323.40
2019-05-06T14:33:23.641Z,100322.91
2019-05-06T14:38:29.279Z,100316.73
2019-05-06T14:43:36.950Z,100316.31
2019-05-06T14:48:43.652Z,100322.20
2019-05-06T14:53:48.953Z,100326.47
2019-05-06T14:59:09.403Z,100323.92
2019-05-06T15:04:14.601Z,100324.03
2019-05-06T15:09:22.436Z,100328.64
2019-05-06T15:14:33.113Z,100330.23
2019-05-06T15:19:38.290Z,100332.14
2019-05-06T15:24:43.551Z,100328.90
2019-05-06T15:29:53.201Z,100317.64
2019-05-06T15:35:09.523Z,100317.58
2019-05-06T15:40:14.769Z,100320.19
2019-05-06T15:45:21.887Z,100320.80
2019-05-06T15:50:27.300Z,100324.78
2019-05-06T15:55:32.828Z,100321.84
2019-05-06T16:00:38.490Z,100330.08
2019-05-06T16:05:43.850Z,100326.73
2019-05-06T16:10:57.137Z,100330.55
2019-05-06T16:15:59.583Z,100325.31
2019-05-06T16:21:05.107Z,100315.85
2019-05-06T16:26:12.242Z,100318.66
2019-05-06T16:31:24.688Z,100321.84
2019-05-06T16:36:29.258Z,100319.53
2019-05-06T16:41:34.378Z,100309.80
2019-05-06T16:46:39.446Z,100311.16
2019-05-06T16:51:44.665Z,100308.33
2019-05-06T16:57:06.517Z,100305.87
2019-05-06T17:02:17.619Z,100303.81
2019-05-06T17:07:22.702Z,100307.05
2019-05-06T17:12:27.754Z,100306.73
2019-05-06T17:17:41.187Z,100307.80
2019-05-06T17:22:39.718Z,100301.41
2019-05-06T17:27:46.199Z,100300.84
2019-05-06T17:32:54.303Z,100301.95
2019-05-06T17:38:13.697Z,100306.85
2019-05-06T17:43:18.886Z,100313.47
2019-05-06T17:48:42.979Z,100307.70
2019-05-06T17:53:52.258Z,100308.02
2019-05-06T17:58:57.978Z,100313.92
2019-05-06T18:04:07.990Z,100311.51
2019-05-06T18:09:13.112Z,100306.52
2019-05-06T18:14:23.012Z,100310.81
2019-05-06T18:19:27.742Z,100323.83
2019-05-06T18:24:33.369Z,100319.41
2019-05-06T18:29:39.414Z,100324.50
2019-05-06T18:34:44.602Z,100330.69
2019-05-06T18:39:50.173Z,100329.61
2019-05-06T18:44:55.418Z,100333.89
2019-05-06T18:50:03.215Z,100337.95
2019-05-06T18:55:08.407Z,100346.73
2019-05-06T19:00:14.272Z,100352.86
2019-05-06T19:05:26.989Z,100358.20
2019-05-06T19:10:33.242Z,100370.70
2019-05-06T19:15:38.633Z,100381.35
2019-05-06T19:20:46.134Z,100385.09
2019-05-06T19:25:52.005Z,100383.02
2019-05-06T19:30:57.860Z,100392.55
2019-05-06T19:36:03.275Z,100398.70
2019-05-06T19:41:22.415Z,100395.50
2019-05-06T19:46:27.594Z,100391.80
2019-05-06T19:51:33.131Z,100389.16
2019-05-06T19:56:38.253Z,100394.48
2019-05-06T20:01:43.682Z,100401.10
2019-05-06T20:07:02.630Z,100402.43
2019-05-06T20:12:13.944Z,100397.67
2019-05-06T20:17:18.974Z,100399.54
2019-05-06T20:22:24.074Z,100392.95
2019-05-06T20:27:29.262Z,100402.27
2019-05-06T20:32:34.403Z,100398.07
2019-05-06T20:37:39.884Z,100412.88
2019-05-06T20:42:45.064Z,100401.48
2019-05-06T20:47:52.331Z,100393.00
2019-05-06T20:52:56.922Z,100393.53
2019-05-06T20:58:02.822Z,100392.98
2019-05-06T21:03:07.854Z,100387.69
2019-05-06T21:08:13.240Z,100376.30
2019-05-06T21:13:29.568Z,100382.66
2019-05-06T21:18:25.214Z,100380.82
2019-05-06T21:24:03.844Z,100379.48
2019-05-06T21:29:09.814Z,100380.81
2019-05-06T21:34:39.012Z,100372.87
2019-05-06T21:39:44.060Z,100380.84
2019-05-06T21:44:52.232Z,100378.70
2019-05-06T21:49:58.251Z,100380.31
2019-05-06T21:55:03.524Z,100385.63
2019-05-06T22:00:10.083Z,100387.50
2019-05-06T22:05:18.610Z,100379.02
2019-05-06T22:10:25.072Z,100379.83
2019-05-06T22:15:32.455Z,100378.24
2019-05-06T22:20:55.172Z,100375.33
2019-05-06T22:26:11.293Z,100375.33
2019-05-06T22:31:12.070Z,100367.92
2019-05-06T22:36:17.218Z,100369.25
2019-05-06T22:41:24.835Z,100368.44
2019-05-06T22:46:29.064Z,100368.70
2019-05-06T22:51:34.164Z,100359.44
2019-05-06T22:56:39.497Z,100354.14
2019-05-06T23:02:02.506Z,100354.95
2019-05-06T23:07:07.806Z,100358.11
2019-05-06T23:12:13.192Z,100344.08
2019-05-06T23:17:18.574Z,100342.48
2019-05-06T23:22:23.781Z,100338.00
2019-05-06T23:27:29.203Z,100343.02
2019-05-06T23:32:34.326Z,100341.15
2019-05-06T23:38:15.298Z,100348.56
2019-05-06T23:43:48.189Z,100341.91
2019-05-06T23:49:29.292Z,100344.20
2019-05-06T23:55:12.477Z,100335.73
